createdAt,value
2019-06-15T00:01:15.958Z,17.92
2019-06-15T00:03:43.664Z,17.10
2019-06-15T00:06:11.374Z,16.32
2019-06-15T00:08:39.001Z,16.27
2019-06-15T00:11:06.683Z,16.13
2019-06-15T00:13:34.301Z,18.12
2019-06-15T00:16:02.018Z,18.02
2019-06-15T00:18:29.654Z,18.10
2019-06-15T00:20:57.329Z,17.90
2019-06-15T00:23:25.026Z,18.80
2019-06-15T00:25:52.722Z,19.47
2019-06-15T00:28:20.362Z,19.67
2019-06-15T00:30:50.469Z,18.60
2019-06-15T00:33:18.098Z,17.87
2019-06-15T00:35:45.835Z,18.62
2019-06-15T00:38:13.505Z,18.37
2019-06-15T00:40:41.199Z,18.63
2019-06-15T00:43:08.890Z,20.57
2019-06-15T00:45:36.607Z,20.77
2019-06-15T00:48:04.269Z,21.77
2019-06-15T00:50:31.956Z,21.93
2019-06-15T00:52:59.646Z,24.27
2019-06-15T00:55:27.294Z,24.60
2019-06-15T00:57:55.202Z,24.92
2019-06-15T01:00:22.875Z,24.05
2019-06-15T01:02:51.034Z,23.65
2019-06-15T01:05:18.642Z,24.50
2019-06-15T01:07:46.348Z,23.67
2019-06-15T01:10:13.982Z,22.55
2019-06-15T01:12:41.840Z,21.02
2019-06-15T01:15:09.884Z,21.10
2019-06-15T01:17:37.655Z,21.57
2019-06-15T01:20:07.163Z,23.97
2019-06-15T01:22:34.863Z,24.63
2019-06-15T01:25:05.906Z,24.50
2019-06-15T01:27:33.178Z,26.27
2019-06-15T01:30:00.875Z,24.77
2019-06-15T01:32:28.566Z,24.05
2019-06-15T01:34:56.194Z,22.75
2019-06-15T01:37:23.868Z,21.83
2019-06-15T01:39:51.883Z,20.60
2019-06-15T01:42:19.570Z,18.03
2019-06-15T01:44:47.275Z,18.12
2019-06-15T01:47:14.927Z,20.57
2019-06-15T01:49:42.581Z,20.27
2019-06-15T01:52:10.268Z,18.37
2019-06-15T01:54:37.984Z,18.23
2019-06-15T01:57:05.644Z,19.03
2019-06-15T01:59:33.313Z,18.20
2019-06-15T02:02:02.145Z,18.77
2019-06-15T02:04:29.831Z,19.27
2019-06-15T02:06:59.807Z,20.15
2019-06-15T02:09:27.524Z,23.13
2019-06-15T02:11:55.687Z,22.77
2019-06-15T02:14:23.356Z,21.37
2019-06-15T02:16:51.043Z,22.42
2019-06-15T02:19:18.726Z,20.45
2019-06-15T02:21:46.403Z,21.07
2019-06-15T02:24:14.079Z,20.75
2019-06-15T02:26:41.787Z,21.37
2019-06-15T02:29:09.502Z,22.17
2019-06-15T02:31:37.157Z,22.00
2019-06-15T02:34:04.828Z,20.00
2019-06-15T02:36:32.470Z,19.53
2019-06-15T02:39:00.181Z,21.40
2019-06-15T02:41:27.824Z,21.55
2019-06-15T02:43:55.523Z,21.87
2019-06-15T02:46:26.315Z,21.37
2019-06-15T02:48:52.811Z,21.83
2019-06-15T02:51:20.660Z,23.45
2019-06-15T02:53:48.460Z,23.03
2019-06-15T02:56:16.088Z,24.80
2019-06-15T02:58:43.791Z,24.33
2019-06-15T03:01:11.463Z,23.98
2019-06-15T03:03:39.149Z,24.33
2019-06-15T03:06:06.795Z,25.40
2019-06-15T03:08:34.652Z,22.93
2019-06-15T03:11:02.602Z,23.87
2019-06-15T03:13:31.213Z,23.12
2019-06-15T03:15:58.897Z,24.93
2019-06-15T03:18:26.558Z,22.58
2019-06-15T03:20:54.216Z,24.60
2019-06-15T03:23:21.926Z,24.10
2019-06-15T03:25:49.611Z,25.00
2019-06-15T03:28:17.261Z,25.25
2019-06-15T03:30:44.969Z,25.35
2019-06-15T03:33:12.629Z,24.77
2019-06-15T03:35:40.378Z,24.47
2019-06-15T03:38:08.163Z,25.80
2019-06-15T03:40:35.860Z,26.10
2019-06-15T03:43:03.653Z,28.40
2019-06-15T03:45:31.444Z,28.50
2019-06-15T03:47:59.241Z,28.62
2019-06-15T03:50:26.946Z,31.10
2019-06-15T03:52:54.641Z,32.15
2019-06-15T03:55:22.513Z,29.87
2019-06-15T03:57:50.184Z,32.50
2019-06-15T04:00:43.941Z,32.88
2019-06-15T04:03:11.657Z,30.68
2019-06-15T04:05:39.361Z,34.10
2019-06-15T04:08:07.210Z,35.73
2019-06-15T04:10:34.899Z,37.28
2019-06-15T04:13:02.571Z,40.13
2019-06-15T04:15:30.277Z,42.88
2019-06-15T04:17:58.251Z,43.23
2019-06-15T04:20:25.925Z,43.70
2019-06-15T04:22:53.566Z,43.30
2019-06-15T04:25:21.314Z,43.30
2019-06-15T04:27:49.047Z,42.40
2019-06-15T04:30:16.715Z,41.77
2019-06-15T04:32:44.325Z,39.60
2019-06-15T04:35:12.015Z,42.53
2019-06-15T04:37:39.676Z,41.98
2019-06-15T04:40:07.357Z,40.80
2019-06-15T04:42:35.008Z,42.13
2019-06-15T04:45:02.974Z,41.73
2019-06-15T04:47:30.614Z,42.47
2019-06-15T04:49:58.271Z,41.15
2019-06-15T04:52:25.963Z,41.33
2019-06-15T04:54:54.541Z,41.05
2019-06-15T04:57:22.249Z,43.27
2019-06-15T04:59:49.865Z,40.67
2019-06-15T05:02:17.862Z,44.00
2019-06-15T05:04:45.710Z,42.83
2019-06-15T05:07:15.537Z,44.97
2019-06-15T05:09:43.072Z,49.23
2019-06-15T05:12:10.739Z,46.03
2019-06-15T05:14:38.394Z,44.80
2019-06-15T05:17:06.062Z,46.23
2019-06-15T05:19:33.709Z,44.33
2019-06-15T05:22:01.400Z,43.53
2019-06-15T05:24:29.067Z,45.70
2019-06-15T05:27:05.823Z,46.40
2019-06-15T05:29:26.195Z,47.17
2019-06-15T05:31:53.896Z,46.80
2019-06-15T05:34:21.932Z,47.70
2019-06-15T05:36:51.113Z,47.53
2019-06-15T05:39:20.390Z,45.70
2019-06-15T05:41:48.181Z,44.67
2019-06-15T05:44:15.843Z,46.43
2019-06-15T05:46:43.525Z,47.80
2019-06-15T05:49:11.190Z,47.03
2019-06-15T05:51:38.851Z,46.33
2019-06-15T05:54:07.580Z,46.00
2019-06-15T05:56:35.289Z,46.50
2019-06-15T05:59:02.944Z,45.50
2019-06-15T06:01:30.592Z,45.50
2019-06-15T06:03:58.278Z,45.07
2019-06-15T06:06:25.943Z,41.87
2019-06-15T06:08:53.599Z,41.23
2019-06-15T06:11:21.280Z,39.77
2019-06-15T06:13:48.938Z,39.37
2019-06-15T06:16:16.611Z,40.73
2019-06-15T06:18:51.313Z,42.23
2019-06-15T06:21:18.935Z,39.20
2019-06-15T06:23:46.619Z,39.03
2019-06-15T06:26:14.270Z,36.70
2019-06-15T06:28:56.293Z,34.67
2019-06-15T06:31:11.488Z,33.18
2019-06-15T06:33:39.212Z,33.70
2019-06-15T06:36:06.902Z,32.00
2019-06-15T06:38:34.664Z,31.17
2019-06-15T06:41:02.354Z,30.63
2019-06-15T06:43:30.078Z,29.87
2019-06-15T06:45:57.780Z,28.47
2019-06-15T06:48:25.473Z,25.27
2019-06-15T06:50:53.136Z,28.27
2019-06-15T06:53:20.823Z,30.80
2019-06-15T06:55:48.492Z,30.55
2019-06-15T06:58:16.233Z,29.83
2019-06-15T07:00:45.715Z,29.12
2019-06-15T07:03:13.444Z,31.60
2019-06-15T07:05:41.691Z,31.12
2019-06-15T07:08:09.370Z,30.32
2019-06-15T07:10:37.059Z,28.07
2019-06-15T07:13:04.868Z,27.85
2019-06-15T07:15:32.550Z,25.60
2019-06-15T07:18:00.249Z,22.17
2019-06-15T07:20:28.000Z,22.15
2019-06-15T07:22:55.715Z,21.33
2019-06-15T07:25:23.529Z,21.30
2019-06-15T07:28:06.952Z,20.05
2019-06-15T07:30:20.713Z,19.62
2019-06-15T07:32:48.457Z,19.32
2019-06-15T07:35:16.131Z,19.10
2019-06-15T07:37:43.896Z,19.50
2019-06-15T07:40:11.745Z,19.10
2019-06-15T07:42:39.704Z,19.32
2019-06-15T07:45:08.898Z,18.20
2019-06-15T07:47:36.657Z,15.10
2019-06-15T07:50:04.731Z,14.07
2019-06-15T07:52:32.439Z,14.78
2019-06-15T07:55:00.207Z,16.37
2019-06-15T07:57:28.083Z,16.30
2019-06-15T07:59:55.865Z,14.87
2019-06-15T08:02:23.530Z,15.32
2019-06-15T08:04:56.357Z,13.00
2019-06-15T08:07:24.074Z,13.35
2019-06-15T08:09:52.104Z,15.28
2019-06-15T08:12:19.762Z,14.45
2019-06-15T08:14:47.487Z,13.88
2019-06-15T08:17:15.165Z,13.28
2019-06-15T08:19:42.878Z,13.83
2019-06-15T08:22:10.604Z,13.65
2019-06-15T08:24:38.273Z,14.20
2019-06-15T08:27:05.959Z,15.28
2019-06-15T08:29:33.712Z,15.58
2019-06-15T08:32:01.376Z,14.93
2019-06-15T08:34:29.040Z,15.05
2019-06-15T08:36:57.040Z,15.15
2019-06-15T08:39:24.721Z,15.93
2019-06-15T08:41:56.918Z,16.20
2019-06-15T08:44:24.406Z,16.35
2019-06-15T08:46:53.246Z,18.15
2019-06-15T08:49:20.961Z,15.98
2019-06-15T08:51:48.625Z,15.75
2019-06-15T08:54:16.365Z,17.42
2019-06-15T08:56:44.073Z,18.92
2019-06-15T08:59:11.839Z,19.12
2019-06-15T09:01:39.526Z,15.75
2019-06-15T09:04:07.244Z,13.43
2019-06-15T09:06:34.922Z,11.93
2019-06-15T09:09:02.571Z,13.40
2019-06-15T09:11:30.264Z,14.77
2019-06-15T09:13:58.215Z,14.77
2019-06-15T09:16:26.008Z,15.23
2019-06-15T09:18:55.560Z,14.90
2019-06-15T09:21:23.199Z,14.77
2019-06-15T09:23:51.309Z,12.93
2019-06-15T09:26:18.994Z,13.13
2019-06-15T09:28:46.653Z,13.30
2019-06-15T09:31:14.365Z,14.67
2019-06-15T09:33:42.217Z,14.50
2019-06-15T09:36:09.899Z,16.50
2019-06-15T09:38:37.666Z,16.40
2019-06-15T09:41:05.333Z,15.70
2019-06-15T09:43:33.030Z,17.50
2019-06-15T09:46:03.506Z,18.57
2019-06-15T09:48:31.150Z,18.02
2019-06-15T09:50:58.929Z,20.08
2019-06-15T09:53:26.613Z,19.57
2019-06-15T09:55:54.356Z,20.30
2019-06-15T09:58:22.076Z,18.05
2019-06-15T10:00:49.806Z,17.92
2019-06-15T10:03:17.487Z,18.62
2019-06-15T10:05:45.173Z,19.37
2019-06-15T10:08:12.986Z,19.60
2019-06-15T10:10:40.669Z,19.17
2019-06-15T10:13:08.402Z,17.90
2019-06-15T10:15:36.070Z,13.90
2019-06-15T10:18:03.815Z,14.30
2019-06-15T10:20:31.445Z,13.15
2019-06-15T10:22:59.106Z,12.85
2019-06-15T10:25:26.744Z,10.08
2019-06-15T10:27:54.381Z,10.05
2019-06-15T10:30:22.129Z,8.28
2019-06-15T10:32:49.845Z,7.53
2019-06-15T10:35:25.204Z,7.97
2019-06-15T10:37:52.816Z,7.08
2019-06-15T10:40:22.255Z,7.50
2019-06-15T10:42:49.904Z,6.83
2019-06-15T10:45:17.745Z,5.17
2019-06-15T10:47:45.387Z,4.03
2019-06-15T10:50:14.922Z,4.10
2019-06-15T10:52:42.466Z,5.58
2019-06-15T10:55:10.586Z,3.70
2019-06-15T10:57:38.228Z,3.87
2019-06-15T11:00:06.585Z,3.77
2019-06-15T11:02:34.254Z,4.22
2019-06-15T11:05:01.889Z,3.70
2019-06-15T11:07:29.537Z,3.72
2019-06-15T11:09:57.244Z,2.72
2019-06-15T11:12:24.896Z,3.42
2019-06-15T11:14:52.500Z,3.33
2019-06-15T11:17:20.533Z,2.50
2019-06-15T11:19:48.153Z,2.45
2019-06-15T11:22:15.807Z,2.70
2019-06-15T11:24:43.441Z,2.55
2019-06-15T11:27:12.203Z,2.92
2019-06-15T11:29:39.845Z,3.15
2019-06-15T11:32:07.469Z,2.35
2019-06-15T11:34:35.186Z,2.50
2019-06-15T11:37:02.790Z,3.42
2019-06-15T11:39:34.593Z,2.83
2019-06-15T11:42:02.289Z,3.45
2019-06-15T11:44:29.967Z,2.47
2019-06-15T11:46:57.721Z,4.85
2019-06-15T11:49:25.534Z,3.30
2019-06-15T11:51:53.134Z,2.80
2019-06-15T11:54:20.775Z,4.28
2019-06-15T11:56:48.418Z,2.92
2019-06-15T11:59:16.122Z,3.02
2019-06-15T12:01:43.762Z,3.20
2019-06-15T12:04:11.381Z,4.00
2019-06-15T12:06:38.982Z,5.90
2019-06-15T12:09:07.078Z,5.47
2019-06-15T12:11:34.732Z,6.25
2019-06-15T12:14:02.348Z,5.10
2019-06-15T12:16:31.224Z,4.70
2019-06-15T12:18:58.884Z,3.85
2019-06-15T12:21:26.505Z,4.03
2019-06-15T12:23:55.461Z,4.55
2019-06-15T12:26:23.083Z,3.02
2019-06-15T12:28:51.064Z,3.55
2019-06-15T12:31:18.683Z,3.10
2019-06-15T12:33:46.505Z,4.08
2019-06-15T12:36:19.255Z,3.58
2019-06-15T12:38:43.661Z,3.37
2019-06-15T12:41:11.309Z,4.37
2019-06-15T12:43:39.004Z,3.42
2019-06-15T12:46:06.677Z,3.87
2019-06-15T12:48:34.373Z,3.90
2019-06-15T12:51:02.008Z,4.72
2019-06-15T12:53:29.653Z,4.35
2019-06-15T12:55:59.228Z,4.10
2019-06-15T12:58:26.775Z,6.60
2019-06-15T13:01:03.049Z,4.55
2019-06-15T13:03:23.944Z,3.90
2019-06-15T13:05:51.593Z,3.62
2019-06-15T13:08:19.199Z,3.70
2019-06-15T13:10:46.941Z,4.65
2019-06-15T13:13:16.346Z,4.42
2019-06-15T13:15:44.014Z,3.20
2019-06-15T13:18:11.640Z,2.77
2019-06-15T13:20:39.260Z,5.03
2019-06-15T13:23:06.903Z,3.40
2019-06-15T13:25:34.519Z,3.30
2019-06-15T13:28:02.122Z,3.20
2019-06-15T13:30:29.737Z,3.40
2019-06-15T13:32:57.351Z,3.80
2019-06-15T13:35:24.983Z,3.55
2019-06-15T13:37:52.628Z,4.17
2019-06-15T13:40:20.274Z,3.40
2019-06-15T13:42:47.883Z,3.50
2019-06-15T13:45:15.639Z,3.42
2019-06-15T13:47:43.355Z,3.27
2019-06-15T13:50:11.106Z,3.72
2019-06-15T13:52:38.770Z,3.58
2019-06-15T13:55:06.755Z,3.60
2019-06-15T13:57:34.385Z,3.72
2019-06-15T14:00:02.310Z,4.00
2019-06-15T14:02:29.910Z,5.10
2019-06-15T14:04:57.542Z,4.08
2019-06-15T14:07:25.203Z,4.20
2019-06-15T14:09:54.567Z,3.92
2019-06-15T14:12:22.155Z,4.12
2019-06-15T14:14:49.832Z,4.10
2019-06-15T14:17:17.530Z,4.22
2019-06-15T14:19:45.137Z,4.47
2019-06-15T14:22:12.779Z,5.10
2019-06-15T14:24:40.438Z,5.20
2019-06-15T14:27:08.065Z,5.17
2019-06-15T14:29:35.665Z,5.50
2019-06-15T14:32:03.303Z,5.37
2019-06-15T14:34:31.006Z,5.22
2019-06-15T14:36:58.640Z,4.22
2019-06-15T14:39:26.249Z,4.62
2019-06-15T14:41:53.876Z,4.50
2019-06-15T14:44:21.473Z,6.53
2019-06-15T14:46:49.109Z,4.92
2019-06-15T14:49:16.772Z,5.10
2019-06-15T14:51:46.044Z,5.10
2019-06-15T14:54:16.038Z,4.58
2019-06-15T14:56:43.093Z,4.20
2019-06-15T14:59:10.712Z,3.75
2019-06-15T15:01:38.382Z,4.80
2019-06-15T15:04:06.357Z,3.77
2019-06-15T15:06:36.645Z,4.20
2019-06-15T15:09:06.543Z,4.03
2019-06-15T15:11:36.598Z,4.40
2019-06-15T15:14:03.662Z,4.00
2019-06-15T15:16:31.694Z,4.47
2019-06-15T15:18:59.301Z,4.17
2019-06-15T15:21:26.912Z,4.45
2019-06-15T15:23:56.916Z,4.62
2019-06-15T15:26:26.341Z,4.00
2019-06-15T15:28:53.400Z,4.33
2019-06-15T15:31:21.033Z,4.45
2019-06-15T15:33:50.582Z,3.80
2019-06-15T15:36:18.157Z,6.00
2019-06-15T15:38:46.816Z,3.83
2019-06-15T15:41:16.904Z,4.20
2019-06-15T15:43:46.295Z,4.45
2019-06-15T15:46:16.540Z,4.85
2019-06-15T15:48:46.703Z,6.75
2019-06-15T15:51:13.909Z,5.60
2019-06-15T15:53:41.553Z,5.87
2019-06-15T15:56:09.194Z,5.08
2019-06-15T15:58:36.831Z,5.83
2019-06-15T16:01:06.551Z,6.85
2019-06-15T16:03:33.906Z,5.58
2019-06-15T16:06:01.561Z,4.28
2019-06-15T16:08:29.208Z,4.95
2019-06-15T16:10:56.829Z,4.17
2019-06-15T16:13:26.750Z,4.37
2019-06-15T16:15:55.947Z,4.22
2019-06-15T16:18:23.562Z,4.40
2019-06-15T16:20:51.201Z,5.40
2019-06-15T16:23:18.909Z,4.53
2019-06-15T16:25:46.548Z,4.40
2019-06-15T16:28:14.242Z,4.87
2019-06-15T16:31:03.110Z,4.72
2019-06-15T16:33:11.348Z,5.10
2019-06-15T16:35:38.998Z,4.83
2019-06-15T16:38:07.125Z,5.28
2019-06-15T16:40:37.943Z,5.62
2019-06-15T16:43:07.013Z,5.20
2019-06-15T16:45:34.624Z,5.62
2019-06-15T16:48:02.290Z,5.10
2019-06-15T16:50:29.913Z,4.87
2019-06-15T16:52:57.520Z,4.45
2019-06-15T16:55:26.033Z,4.65
2019-06-15T16:57:56.615Z,4.30
2019-06-15T17:00:27.463Z,6.25
2019-06-15T17:02:53.938Z,5.62
2019-06-15T17:05:21.646Z,4.75
2019-06-15T17:07:49.376Z,4.65
2019-06-15T17:10:19.908Z,5.10
2019-06-15T17:12:47.727Z,4.55
2019-06-15T17:15:17.020Z,4.67
2019-06-15T17:17:46.087Z,5.25
2019-06-15T17:20:15.672Z,5.22
2019-06-15T17:22:43.302Z,7.25
2019-06-15T17:25:11.072Z,7.62
2019-06-15T17:27:38.684Z,9.25
2019-06-15T17:30:07.151Z,6.75
2019-06-15T17:32:36.953Z,9.60
2019-06-15T17:35:06.195Z,6.50
2019-06-15T17:37:36.209Z,7.92
2019-06-15T17:40:05.537Z,9.30
2019-06-15T17:42:33.128Z,6.03
2019-06-15T17:45:00.823Z,6.08
2019-06-15T17:47:28.439Z,5.80
2019-06-15T17:49:56.294Z,5.50
2019-06-15T17:52:26.282Z,5.20
2019-06-15T17:54:53.357Z,5.53
2019-06-15T17:57:21.090Z,5.00
2019-06-15T17:59:48.723Z,6.22
2019-06-15T18:02:17.173Z,5.10
2019-06-15T18:04:47.359Z,7.62
2019-06-15T18:07:16.695Z,6.78
2019-06-15T18:09:46.445Z,5.10
2019-06-15T18:12:13.212Z,5.12
2019-06-15T18:14:40.841Z,9.13
2019-06-15T18:17:08.546Z,8.85
2019-06-15T18:19:36.937Z,5.33
2019-06-15T18:22:07.032Z,6.67
2019-06-15T18:24:34.147Z,5.62
2019-06-15T18:27:01.829Z,5.42
2019-06-15T18:29:29.545Z,4.90
2019-06-15T18:31:57.187Z,6.90
2019-06-15T18:34:24.833Z,5.10
2019-06-15T18:36:52.495Z,4.90
2019-06-15T18:39:20.131Z,4.78
2019-06-15T18:41:49.668Z,6.12
2019-06-15T18:44:17.194Z,4.90
2019-06-15T18:46:46.546Z,5.53
2019-06-15T18:49:15.958Z,6.60
2019-06-15T18:51:45.895Z,5.92
2019-06-15T18:54:13.177Z,6.50
2019-06-15T18:56:40.864Z,4.72
2019-06-15T18:59:08.608Z,5.17
2019-06-15T19:01:37.520Z,4.72
2019-06-15T19:04:06.777Z,5.30
2019-06-15T19:06:36.916Z,4.67
2019-06-15T19:09:06.636Z,5.05
2019-06-15T19:11:34.343Z,6.20
2019-06-15T19:14:03.758Z,6.08
2019-06-15T19:16:31.445Z,6.40
2019-06-15T19:18:59.234Z,4.20
2019-06-15T19:24:26.029Z,4.97
2019-06-15T19:26:53.910Z,5.75
2019-06-15T19:29:21.592Z,4.60
2019-06-15T19:31:49.251Z,4.53
2019-06-15T19:34:16.889Z,4.85
2019-06-15T19:36:46.718Z,4.80
2019-06-15T19:39:16.401Z,4.45
2019-06-15T19:41:46.002Z,5.83
2019-06-15T19:44:13.261Z,4.65
2019-06-15T19:46:42.012Z,4.53
2019-06-15T19:49:09.850Z,4.60
2019-06-15T19:51:37.531Z,5.00
2019-06-15T19:54:07.055Z,5.40
2019-06-15T19:56:40.285Z,4.85
2019-06-15T19:59:07.899Z,4.47
2019-06-15T20:01:36.212Z,6.67
2019-06-15T20:04:06.505Z,5.08
2019-06-15T20:06:33.674Z,5.90
2019-06-15T20:09:01.296Z,5.78
2019-06-15T20:11:28.934Z,5.17
2019-06-15T20:13:56.604Z,5.50
2019-06-15T20:16:24.244Z,6.83
2019-06-15T20:18:51.918Z,5.78
2019-06-15T20:21:19.603Z,5.45
2019-06-15T20:23:47.554Z,5.67
2019-06-15T20:26:16.066Z,5.57
2019-06-15T20:28:43.811Z,5.75
2019-06-15T20:31:13.118Z,6.37
2019-06-15T20:33:40.846Z,5.73
2019-06-15T20:36:08.519Z,5.78
2019-06-15T20:38:36.540Z,6.77
2019-06-15T20:41:07.514Z,7.95
2019-06-15T20:43:36.627Z,9.50
2019-06-15T20:46:06.816Z,9.47
2019-06-15T20:48:36.230Z,11.45
2019-06-15T20:51:06.763Z,9.03
2019-06-15T20:53:33.071Z,8.97
2019-06-15T20:56:00.751Z,8.08
2019-06-15T20:58:28.442Z,8.48
2019-06-15T21:00:56.422Z,8.10
2019-06-15T21:03:26.637Z,8.60
2019-06-15T21:05:56.929Z,9.50
2019-06-15T21:08:23.052Z,10.70
2019-06-15T21:10:50.669Z,10.60
2019-06-15T21:13:19.537Z,10.70
2019-06-15T21:15:47.645Z,12.03
2019-06-15T21:18:15.480Z,8.98
2019-06-15T21:20:43.085Z,8.33
2019-06-15T21:23:10.757Z,10.43
2019-06-15T21:25:38.384Z,10.50
2019-06-15T21:28:06.758Z,11.17
2019-06-15T21:30:36.787Z,18.07
2019-06-15T21:33:06.811Z,11.13
2019-06-15T21:35:47.843Z,11.47
2019-06-15T21:38:03.010Z,10.10
2019-06-15T21:40:30.615Z,12.63
2019-06-15T21:42:58.194Z,10.58
2019-06-15T21:45:25.838Z,11.10
2019-06-15T21:47:55.864Z,10.73
2019-06-15T21:50:22.913Z,13.87
2019-06-15T21:52:50.527Z,14.87
2019-06-15T21:55:18.220Z,13.73
2019-06-15T21:57:45.872Z,14.87
2019-06-15T22:00:17.556Z,15.70
2019-06-15T22:02:47.104Z,13.27
2019-06-15T22:05:16.622Z,13.93
2019-06-15T22:07:44.301Z,14.23
2019-06-15T22:10:12.070Z,16.33
2019-06-15T22:12:39.773Z,15.57
2019-06-15T22:15:07.515Z,15.00
2019-06-15T22:17:37.128Z,14.33
2019-06-15T22:20:06.281Z,13.43
2019-06-15T22:22:36.265Z,13.77
2019-06-15T22:25:03.630Z,14.83
2019-06-15T22:27:31.279Z,11.57
2019-06-15T22:29:58.909Z,11.73
2019-06-15T22:32:27.036Z,11.83
2019-06-15T22:34:56.319Z,10.57
2019-06-15T22:37:26.243Z,12.10
2019-06-15T22:39:56.099Z,11.60
2019-06-15T22:42:23.072Z,12.17
2019-06-15T22:44:50.734Z,12.00
2019-06-15T22:47:18.472Z,12.53
2019-06-15T22:49:46.826Z,11.93
2019-06-15T22:52:17.047Z,11.17
2019-06-15T22:54:46.384Z,11.13
2019-06-15T22:57:13.628Z,10.73
2019-06-15T22:59:41.237Z,10.60
2019-06-15T23:02:08.949Z,10.60
2019-06-15T23:04:37.183Z,11.33
2019-06-15T23:07:06.924Z,11.43
2019-06-15T23:09:36.047Z,11.03
2019-06-15T23:12:03.848Z,12.50
2019-06-15T23:14:31.504Z,11.70
2019-06-15T23:16:59.154Z,10.57
2019-06-15T23:19:26.808Z,10.77
2019-06-15T23:21:57.195Z,11.27
2019-06-15T23:24:27.056Z,11.53
2019-06-15T23:26:56.942Z,11.10
2019-06-15T23:29:24.158Z,10.63
2019-06-15T23:31:51.791Z,12.80
2019-06-15T23:34:19.351Z,10.37
2019-06-15T23:36:56.867Z,10.67
2019-06-15T23:39:18.130Z,12.63
2019-06-15T23:41:46.968Z,12.20
2019-06-15T23:44:16.159Z,13.40
2019-06-15T23:46:43.919Z,12.43
2019-06-15T23:49:11.572Z,11.63
2019-06-15T23:51:39.148Z,11.80
2019-06-15T23:54:06.739Z,11.43
2019-06-15T23:56:36.701Z,11.53
2019-06-15T23:59:03.707Z,11.77
